Relevés horaires St-Hubert (Belgique)


Relevés horaires à St-Hubert - Vendredi 23 Juill. 2021
Heure UTC1 Température [°C] Vent [km/h] Hum. [%] Pres.4 [hPa] Visi. [Km] Nébu. [octa] Préc.5 [mm] Cond.
2m. Res. Ros. Dir.2 Vit. Moy. Raf.3
23:00 17.0 17.0 12.4 E 9.3 9.3 13.0 74 1011.6(-0.7/3h) 29 0/8 -- --
22:00 17.3 17.3 12.3 E 7.4 9.3 13.0 72 1012.1(-0.2/3h) 29 0/8 -- --
21:00 17.7 17.7 12.8 E 9.3 9.3 13.0 73 1011.6(-0.9/3h) 30 0/8 -- --
20:00 17.3 17.3 13.0 E 5.6 5.6 7.4 76 1012.2(-1.0/3h) 30 0/8 -- --
19:00 19.9 19.9 12.7 E 3.7 7.4 11.1 63 1011.8(-1.6/3h) 30 0/8 -- --
18:00 21.3 21.3 11.7 E 7.4 7.4 13.0 54 1011.8(-1.5/3h) 35 0/8 0/12h
--
17:00 22.7 22.7 13.5 E 5.6 7.4 9.3 56 1012(-1.5/3h) 30 0/8 -- --
16:00 23.0 23.0 11.7 ESE 5.6 5.6 11.1 49 1012.8(-1.1/3h) 25 0/8 -- --
15:00 23.1 23.1 11.1 NNO 3.7 5.6 13.0 47 1013.1(-1.3/3h) 30 1/8 -- --
14:00 23.3 23.3 11.8 SE 3.7 5.6 9.3 48 1013.6(-1.4/3h) 30 0/8 -- --
13:00 22.7 22.7 11.7 NNO 1.9 5.6 13.0 50 1014(-1.5/3h) 30 0/8 -- --
12:00 22.0 22.0 11.5 NNO 3.7 5.6 11.1 51 1014.7(-1.6/3h) 30 2/8 0/6h
--
11:00 21.3 21.3 12.6 NNO 1.9 5.6 11.1 58 1015.5(-1.3/3h) 25 6/8 -- --
10:00 21.0 21.0 12.6 SE 3.7 3.7 7.4 59 1015.9(-1.0/3h) 25 6/8 -- --
09:00 20.3 20.3 12.3 NNO 1.9 5.6 7.4 60 1016.8(-0.4/3h) 30 0/8 -- --
08:00 17.9 17.9 13.4 NNO 3.7 5.6 7.4 75 1017.6(0.0/3h) 16 0/8 -- --
07:00 16.1 16.1 13.1 NE 5.6 5.6 7.4 82 1018(0.2/3h) 11 0/8 -- --
06:00 14.3 14.3 12.0 NE 5.6 7.4 11.1 86 1018.6(-0.4/3h) -- 0/8 0/12h
--
05:00 13.4 13.4 11.5 ENE 5.6 7.4 9.3 88 1018.7(-0.8/3h) -- 0/8 -- --
04:00 13.3 13.3 11.6 ENE 5.6 7.4 9.3 89 1018.9(-1.0/3h) 9 0/8 -- --
03:00 13.4 13.1 11.6 ENE 7.4 7.4 11.1 89 1019.2(-1.0/3h) 10 0/8 -- --
02:00 13.7 13.5 11.9 ENE 7.4 7.4 11.1 89 1019.5(-0.9/3h) 13 0/8 -- --
01:00 13.7 13.5 11.7 ENE 7.4 7.4 9.3 88 1019.9(-0.7/3h) 14 0/8 -- --
00:00 13.2 12.9 11.4 ENE 7.4 7.4 9.3 89 1020.4(-0.5/3h) 16 0/8 0/6h
0/24h
--

1 Coordinated Universal Time. Actuellement il est 22:00 locale et 20:00 UTC.

2 Le vent souffle depuis la direction indiquée vers la direction oposée.

3 Les rafales max. sont disponible 40 min après l'heure du relevé.

4 Pour les stations d'altitude (plus de 600m) le géopotentiel du niveau le plus proche de la pression obligatoire est indiqué.

5 Les stations disposant d'un diffuseur peuvent indiquer "trace". Cela signifie que des précipitations ont touchés le sol mais que la quantité est inférieure à 0.1 mm.

Récapitulatif de la journée
Température [°C] Vent [km/h] Ensoleillement4 [h] Precipitations totale5 [mm] Pression [Hpa]
Min1 Max.2 Moy.3 Max. Min Max.
13.0 23.7 6.7 13.0 0 h 0 min 0 1011.6 1020.4

1 Température minimale relevée entre 18:00 UTC la veille et 18:00 UTC le jour donné.

2 Température maximale relevée entre 06:00 UTC le jour donné et 06:00 UTC le lendemain.

3 Vent moyen de la journée basé sur les relevés horaires.

4 Ensoleillement en heures relevé entre 06:00 UTC la veille et 06:00 UTC le jour donné.

5 Précipitations totales tombées entre 06:00 UTC la jour donné et 06:00 UTC le lendemain.

Graphiques horaires